createdAt,value
2023-05-05T00:01:47.367Z,83006.36
2023-05-05T00:04:14.238Z,83009.00
2023-05-05T00:06:40.926Z,83006.90
2023-05-05T00:09:07.536Z,83000.63
2023-05-05T00:11:33.999Z,83005.66
2023-05-05T00:14:00.624Z,83000.55
2023-05-05T00:16:27.453Z,83004.02
2023-05-05T00:18:54.122Z,83001.03
2023-05-05T00:21:20.717Z,82997.35
2023-05-05T00:23:47.190Z,83001.52
2023-05-05T00:26:14.107Z,83000.23
2023-05-05T00:28:41.093Z,82998.03
2023-05-05T00:31:07.841Z,82996.55
2023-05-05T00:33:34.539Z,82990.29
2023-05-05T00:36:01.289Z,82995.46
2023-05-05T00:38:28.946Z,82992.17
2023-05-05T00:40:55.906Z,82987.72
2023-05-05T00:43:22.390Z,82993.72
2023-05-05T00:45:48.914Z,82993.41
2023-05-05T00:48:17.130Z,82997.55
2023-05-05T00:50:44.997Z,82996.98
2023-05-05T00:53:11.975Z,82992.30
2023-05-05T00:55:38.565Z,82993.32
2023-05-05T00:58:05.173Z,82992.85
2023-05-05T01:00:31.753Z,82992.61
2023-05-05T01:02:59.370Z,82990.77
2023-05-05T01:05:28.109Z,82994.77
2023-05-05T01:08:14.849Z,82991.55
2023-05-05T01:10:46.165Z,82987.36
2023-05-05T01:13:44.247Z,82991.20
2023-05-05T01:16:18.104Z,82979.55
2023-05-05T01:19:05.226Z,82990.33
2023-05-05T01:21:50.498Z,82992.75
2023-05-05T01:24:45.647Z,82990.30
2023-05-05T01:27:49.248Z,82991.41
2023-05-05T01:30:34.315Z,82995.31
2023-05-05T01:33:06.754Z,82986.02
2023-05-05T01:35:36.737Z,82995.18
2023-05-05T01:38:07.247Z,82995.49
2023-05-05T01:40:39.369Z,82996.59
2023-05-05T01:43:06.968Z,82996.93
2023-05-05T01:45:35.820Z,82995.91
2023-05-05T01:48:02.564Z,82994.96
2023-05-05T01:50:29.260Z,82998.50
2023-05-05T01:52:58.023Z,83000.71
2023-05-05T01:55:25.687Z,83000.64
2023-05-05T01:57:53.320Z,82995.60
2023-05-05T02:00:19.990Z,83002.58
2023-05-05T02:02:47.740Z,83003.10
2023-05-05T02:05:14.329Z,82999.89
2023-05-05T02:07:41.151Z,83001.64
2023-05-05T02:10:10.456Z,83006.48
2023-05-05T02:12:37.240Z,83002.54
2023-05-05T02:15:05.047Z,83009.10
2023-05-05T02:17:31.686Z,83009.48
2023-05-05T02:19:59.056Z,83008.45
2023-05-05T02:22:25.782Z,83010.81
2023-05-05T02:24:52.465Z,83007.23
2023-05-05T02:27:19.163Z,83008.77
2023-05-05T02:29:53.394Z,83010.22
2023-05-05T02:32:32.762Z,83012.23
2023-05-05T02:35:04.304Z,83012.83
2023-05-05T02:37:31.088Z,83000.83
2023-05-05T02:40:06.263Z,83011.10
2023-05-05T02:42:38.982Z,83010.27
2023-05-05T02:45:12.276Z,83012.44
2023-05-05T02:47:40.722Z,83013.67
2023-05-05T02:50:08.378Z,83015.73
2023-05-05T02:52:35.614Z,83016.27
2023-05-05T02:55:03.240Z,83017.98
2023-05-05T02:57:37.928Z,83021.86
2023-05-05T03:00:14.078Z,83013.40
2023-05-05T03:02:50.194Z,83020.31
2023-05-05T03:05:19.932Z,83017.02
2023-05-05T03:08:03.620Z,83017.14
2023-05-05T03:10:35.168Z,83016.02
2023-05-05T03:13:02.733Z,83017.91
2023-05-05T03:15:49.538Z,83019.04
2023-05-05T03:18:18.606Z,83019.32
2023-05-05T03:20:48.264Z,83022.52
2023-05-05T03:23:18.390Z,83019.56
2023-05-05T03:25:47.091Z,83021.29
2023-05-05T03:28:20.155Z,83015.52
2023-05-05T03:30:46.630Z,83020.11
2023-05-05T03:33:14.067Z,83020.26
2023-05-05T03:35:40.773Z,83017.71
2023-05-05T03:38:08.421Z,83017.27
2023-05-05T03:40:43.569Z,83018.20
2023-05-05T03:43:11.942Z,83019.92
2023-05-05T03:45:38.724Z,83015.10
2023-05-05T03:48:06.639Z,83018.08
2023-05-05T03:50:33.268Z,83018.61
2023-05-05T03:52:59.903Z,83016.83
2023-05-05T03:55:26.853Z,83014.75
2023-05-05T03:57:53.370Z,83008.42
2023-05-05T04:00:20.042Z,83017.13
2023-05-05T04:02:46.688Z,83015.24
2023-05-05T04:05:13.954Z,83011.59
2023-05-05T04:07:40.563Z,83009.48
2023-05-05T04:10:08.756Z,83010.86
2023-05-05T04:12:35.823Z,83012.46
2023-05-05T04:15:02.622Z,83014.27
2023-05-05T04:17:29.208Z,83013.71
2023-05-05T04:19:55.778Z,83004.80
2023-05-05T04:22:22.447Z,83012.71
2023-05-05T04:24:49.148Z,83009.66
2023-05-05T04:27:15.932Z,83013.41
2023-05-05T04:29:42.586Z,83018.03
2023-05-05T04:32:09.594Z,83019.56
2023-05-05T04:34:36.218Z,83021.42
2023-05-05T04:37:02.930Z,83024.86
2023-05-05T04:39:29.985Z,83026.73
2023-05-05T04:41:56.793Z,83025.92
2023-05-05T04:44:23.973Z,83026.60
2023-05-05T04:46:50.948Z,83024.88
2023-05-05T04:49:17.487Z,83027.05
2023-05-05T04:51:44.117Z,83028.70
2023-05-05T04:54:10.672Z,83031.86
2023-05-05T04:56:37.228Z,83031.89
2023-05-05T04:59:03.788Z,83036.33
2023-05-05T05:01:30.425Z,83037.08
2023-05-05T05:03:57.039Z,83038.24
2023-05-05T05:06:23.910Z,83042.52
2023-05-05T05:08:50.329Z,83044.34
2023-05-05T05:11:16.852Z,83046.67
2023-05-05T05:13:43.441Z,83047.64
2023-05-05T05:16:09.975Z,83049.52
2023-05-05T05:18:36.463Z,83049.55
2023-05-05T05:21:03.501Z,83049.41
2023-05-05T05:23:30.093Z,83048.84
2023-05-05T05:25:57.159Z,83046.64
2023-05-05T05:28:23.820Z,83049.02
2023-05-05T05:30:53.947Z,83045.02
2023-05-05T05:33:20.587Z,83042.11
2023-05-05T05:35:47.634Z,83048.48
2023-05-05T05:38:14.530Z,83045.56
2023-05-05T05:40:41.192Z,83048.54
2023-05-05T05:43:07.652Z,83049.48
2023-05-05T05:45:34.625Z,83048.98
2023-05-05T05:48:01.789Z,83049.02
2023-05-05T05:50:28.773Z,83052.16
2023-05-05T05:52:55.872Z,83048.94
2023-05-05T05:55:22.623Z,83052.88
2023-05-05T05:57:49.170Z,83050.70
2023-05-05T06:00:16.196Z,83049.14
2023-05-05T06:02:45.162Z,83047.70
2023-05-05T06:05:14.004Z,83051.02
2023-05-05T06:07:41.261Z,83048.96
2023-05-05T06:10:25.819Z,83047.83
2023-05-05T06:12:54.097Z,83045.90
2023-05-05T06:15:20.673Z,83048.38
2023-05-05T06:17:47.354Z,83048.48
2023-05-05T06:20:13.955Z,83049.89
2023-05-05T06:22:40.568Z,83052.90
2023-05-05T06:25:07.609Z,83053.69
2023-05-05T06:27:34.508Z,83051.65
2023-05-05T06:30:01.164Z,83053.83
2023-05-05T06:32:27.685Z,83054.73
2023-05-05T06:34:54.255Z,83051.05
2023-05-05T06:37:20.769Z,83048.98
2023-05-05T06:39:47.289Z,83046.23
2023-05-05T06:42:13.754Z,83043.40
2023-05-05T06:44:40.305Z,83038.21
2023-05-05T06:47:06.921Z,83039.09
2023-05-05T06:49:33.641Z,83037.95
2023-05-05T06:52:00.183Z,83034.73
2023-05-05T06:54:26.838Z,83034.55
2023-05-05T06:56:53.398Z,83037.84
2023-05-05T06:59:19.897Z,83042.48
2023-05-05T07:01:46.391Z,83044.11
2023-05-05T07:04:13.082Z,83043.43
2023-05-05T07:06:39.753Z,83042.80
2023-05-05T07:09:06.725Z,83045.47
2023-05-05T07:11:33.304Z,83042.71
2023-05-05T07:13:59.844Z,83043.90
2023-05-05T07:16:27.294Z,83043.57
2023-05-05T07:18:53.927Z,83046.19
2023-05-05T07:21:20.406Z,83045.83
2023-05-05T07:23:47.818Z,83047.00
2023-05-05T07:26:15.180Z,83042.95
2023-05-05T07:28:43.143Z,83049.56
2023-05-05T07:31:09.747Z,83049.61
2023-05-05T07:33:36.230Z,83048.17
2023-05-05T07:36:02.957Z,83050.63
2023-05-05T07:38:29.505Z,83048.55
2023-05-05T07:40:55.987Z,83049.40
2023-05-05T07:43:22.475Z,83053.61
2023-05-05T07:45:48.984Z,83052.64
2023-05-05T07:48:15.506Z,83049.78
2023-05-05T07:50:42.220Z,83052.76
2023-05-05T07:53:14.438Z,83049.77
2023-05-05T07:55:41.880Z,83044.99
2023-05-05T07:58:08.638Z,83043.09
2023-05-05T08:00:35.632Z,83043.48
2023-05-05T08:03:02.275Z,83045.27
2023-05-05T08:05:28.876Z,83045.13
2023-05-05T08:07:55.477Z,83045.03
2023-05-05T08:10:22.421Z,83044.78
2023-05-05T08:12:49.169Z,83046.92
2023-05-05T08:15:15.855Z,83047.76
2023-05-05T08:17:50.633Z,83045.36
2023-05-05T08:20:17.933Z,83042.83
2023-05-05T08:22:44.714Z,83041.89
2023-05-05T08:25:11.563Z,83043.30
2023-05-05T08:27:39.203Z,83048.90
2023-05-05T08:30:06.339Z,83050.75
2023-05-05T08:32:33.037Z,83045.95
2023-05-05T08:35:01.494Z,83047.09
2023-05-05T08:37:28.010Z,83050.23
2023-05-05T08:39:54.534Z,83049.63
2023-05-05T08:42:35.542Z,83048.61
2023-05-05T08:45:04.788Z,83046.39
2023-05-05T08:47:32.300Z,83049.20
2023-05-05T08:49:58.956Z,83049.59
2023-05-05T08:52:25.469Z,83043.19
2023-05-05T08:54:57.781Z,83043.49
2023-05-05T08:57:27.997Z,83040.94
2023-05-05T08:59:54.592Z,83042.46
2023-05-05T09:02:23.988Z,83042.89
2023-05-05T09:04:51.694Z,83041.65
2023-05-05T09:07:18.193Z,83042.59
2023-05-05T09:09:44.780Z,83041.41
2023-05-05T09:12:11.355Z,83041.02
2023-05-05T09:14:37.910Z,83042.89
2023-05-05T09:17:04.482Z,83045.04
2023-05-05T09:19:31.194Z,83043.15
2023-05-05T09:21:57.800Z,83038.16
2023-05-05T09:24:24.587Z,83036.06
2023-05-05T09:26:51.238Z,83035.92
2023-05-05T09:29:21.347Z,83035.50
2023-05-05T09:32:09.119Z,83035.65
2023-05-05T09:34:36.203Z,83030.88
2023-05-05T09:37:03.270Z,83034.42
2023-05-05T09:39:29.767Z,83033.83
2023-05-05T09:41:56.329Z,83029.05
2023-05-05T09:44:36.772Z,83027.59
2023-05-05T09:47:07.245Z,83031.95
2023-05-05T09:49:39.127Z,83031.09
2023-05-05T09:52:15.751Z,83027.25
2023-05-05T09:54:43.038Z,83024.80
2023-05-05T09:57:09.705Z,83024.85
2023-05-05T09:59:36.547Z,83025.73
2023-05-05T10:02:13.008Z,83024.94
2023-05-05T10:04:39.586Z,83026.13
2023-05-05T10:07:06.315Z,83028.09
2023-05-05T10:09:33.006Z,83022.11
2023-05-05T10:11:59.931Z,83023.91
2023-05-05T10:14:26.899Z,83023.66
2023-05-05T10:16:54.707Z,83025.04
2023-05-05T10:19:22.745Z,83023.93
2023-05-05T10:21:50.068Z,83024.20
2023-05-05T10:24:39.079Z,83020.45
2023-05-05T10:27:15.393Z,83017.66
2023-05-05T10:29:59.717Z,83021.15
2023-05-05T10:35:04.089Z,83020.84
2023-05-05T10:37:30.689Z,83014.17
2023-05-05T10:40:00.265Z,83014.17
2023-05-05T10:42:27.713Z,83012.52
2023-05-05T10:44:54.561Z,83013.60
2023-05-05T10:47:22.293Z,83013.04
2023-05-05T10:50:05.614Z,83019.65
2023-05-05T10:52:38.535Z,83017.84
2023-05-05T10:55:17.700Z,83014.03
2023-05-05T10:57:46.437Z,83009.19
2023-05-05T11:00:55.981Z,83011.73
2023-05-05T11:03:25.193Z,83006.87
2023-05-05T11:06:26.009Z,83001.27
2023-05-05T11:08:55.966Z,82999.39
2023-05-05T11:11:25.401Z,82997.13
2023-05-05T11:13:53.998Z,82996.25
2023-05-05T11:16:50.582Z,82988.86
2023-05-05T11:19:46.952Z,82987.14
2023-05-05T11:22:16.967Z,82986.26
2023-05-05T11:24:45.693Z,82983.66
2023-05-05T11:27:15.001Z,82982.05
2023-05-05T11:30:08.003Z,82978.97
2023-05-05T11:32:37.949Z,82977.15
2023-05-05T11:35:07.182Z,82973.51
2023-05-05T11:37:36.925Z,82974.13
2023-05-05T11:40:21.230Z,82968.67
2023-05-05T11:42:50.437Z,82969.98
2023-05-05T11:45:23.758Z,82971.52
2023-05-05T11:47:53.306Z,82970.98
2023-05-05T11:50:23.080Z,82966.94
2023-05-05T11:52:52.407Z,82963.48
2023-05-05T12:02:55.635Z,82958.61
2023-05-05T12:05:21.633Z,82954.29
2023-05-05T12:07:47.643Z,82962.32
2023-05-05T12:10:15.767Z,82963.41
2023-05-05T12:12:41.723Z,82961.13
2023-05-05T12:15:08.709Z,82959.76
2023-05-05T12:17:39.688Z,82962.94
2023-05-05T12:20:07.070Z,82958.94
2023-05-05T12:22:33.205Z,82959.25
2023-05-05T12:25:06.848Z,82959.96
2023-05-05T12:27:32.775Z,82956.73
2023-05-05T12:30:13.516Z,82957.92
2023-05-05T12:32:39.532Z,82949.36
2023-05-05T12:35:07.235Z,82952.27
2023-05-05T12:37:33.033Z,82953.00
2023-05-05T12:39:58.890Z,82950.55
2023-05-05T12:42:24.752Z,82944.96
2023-05-05T12:44:50.722Z,82942.48
2023-05-05T12:47:33.206Z,82937.33
2023-05-05T12:49:59.770Z,82932.22
2023-05-05T12:52:44.547Z,82929.95
2023-05-05T12:55:10.841Z,82930.98
2023-05-05T12:57:37.765Z,82934.20
2023-05-05T13:00:14.794Z,82928.80
2023-05-05T13:02:40.654Z,82917.95
2023-05-05T13:05:08.198Z,82920.84
2023-05-05T13:07:34.351Z,82918.77
2023-05-05T13:10:08.980Z,82916.27
2023-05-05T13:12:34.850Z,82909.09
2023-05-05T13:15:00.597Z,82911.46
2023-05-05T13:17:26.379Z,82909.14
2023-05-05T13:19:52.294Z,82909.53
2023-05-05T13:22:18.152Z,82909.83
2023-05-05T13:24:52.133Z,82905.98
2023-05-05T13:27:19.351Z,82899.09
2023-05-05T13:29:45.578Z,82895.20
2023-05-05T13:32:11.317Z,82892.06
2023-05-05T13:34:38.428Z,82889.86
2023-05-05T13:37:04.268Z,82885.20
2023-05-05T13:39:30.198Z,82885.05
2023-05-05T13:41:56.016Z,82876.18
2023-05-05T13:44:22.050Z,82876.69
2023-05-05T13:46:48.009Z,82875.52
2023-05-05T13:49:13.938Z,82870.77
2023-05-05T13:51:39.876Z,82867.41
2023-05-05T13:54:06.339Z,82866.84
2023-05-05T13:56:32.985Z,82866.55
2023-05-05T13:58:58.892Z,82861.89
2023-05-05T14:01:25.211Z,82859.59
2023-05-05T14:03:51.211Z,82856.73
2023-05-05T14:06:17.423Z,82851.98
2023-05-05T14:08:43.214Z,82850.70
2023-05-05T14:11:08.983Z,82848.52
2023-05-05T14:13:34.935Z,82848.60
2023-05-05T14:16:01.043Z,82840.89
2023-05-05T14:18:27.700Z,82837.11
2023-05-05T14:20:54.017Z,82840.63
2023-05-05T14:23:19.915Z,82837.10
2023-05-05T14:25:45.967Z,82839.73
2023-05-05T14:28:11.921Z,82836.92
2023-05-05T14:30:39.074Z,82833.62
2023-05-05T14:33:04.972Z,82833.33
2023-05-05T14:35:31.132Z,82830.60
2023-05-05T14:37:57.097Z,82828.38
2023-05-05T14:40:22.962Z,82820.90
2023-05-05T14:42:50.484Z,82827.92
2023-05-05T14:45:17.138Z,82827.66
2023-05-05T14:47:43.110Z,82824.08
2023-05-05T14:50:09.753Z,82825.44
2023-05-05T14:52:38.524Z,82818.47
2023-05-05T14:55:05.319Z,82821.89
2023-05-05T14:57:31.456Z,82816.14
2023-05-05T14:59:57.468Z,82818.83
2023-05-05T15:02:23.494Z,82817.39
2023-05-05T15:04:49.924Z,82818.49
2023-05-05T15:07:16.165Z,82812.63
2023-05-05T15:09:42.068Z,82819.88
2023-05-05T15:12:07.882Z,82817.88
2023-05-05T15:14:35.883Z,82807.24
2023-05-05T15:17:02.209Z,82816.33
2023-05-05T15:19:28.940Z,82813.39
2023-05-05T15:21:54.949Z,82811.36
2023-05-05T15:24:21.340Z,82814.84
2023-05-05T15:26:47.226Z,82811.13
2023-05-05T15:29:13.147Z,82801.21
2023-05-05T15:31:38.968Z,82808.22
2023-05-05T15:34:05.524Z,82807.26
2023-05-05T15:36:31.618Z,82805.77
2023-05-05T15:38:57.412Z,82803.44
2023-05-05T15:41:26.535Z,82801.22
2023-05-05T15:43:52.439Z,82796.95
2023-05-05T15:46:18.393Z,82796.39
2023-05-05T15:48:44.198Z,82798.49
2023-05-05T15:51:12.087Z,82794.93
2023-05-05T15:53:38.078Z,82797.29
2023-05-05T15:56:04.223Z,82795.11
2023-05-05T15:58:30.443Z,82793.42
2023-05-05T16:00:56.311Z,82790.13
2023-05-05T16:03:22.195Z,82780.52
2023-05-05T16:05:48.158Z,82785.79
2023-05-05T16:08:13.973Z,82783.06
2023-05-05T16:10:40.256Z,82782.52
2023-05-05T16:13:06.135Z,82779.46
2023-05-05T16:15:32.315Z,82766.70
2023-05-05T16:17:58.221Z,82776.05
2023-05-05T16:20:24.037Z,82773.34
2023-05-05T16:22:50.170Z,82770.66
2023-05-05T16:25:17.780Z,82769.79
2023-05-05T16:27:43.704Z,82771.49
2023-05-05T16:30:12.245Z,82766.70
2023-05-05T16:32:38.130Z,82762.14
2023-05-05T16:35:06.407Z,82759.96
2023-05-05T16:37:32.540Z,82760.52
2023-05-05T16:39:59.909Z,82759.55
2023-05-05T16:42:25.738Z,82754.10
2023-05-05T16:44:51.605Z,82761.44
2023-05-05T16:47:17.472Z,82760.86
2023-05-05T16:52:09.522Z,82759.15
2023-05-05T16:54:35.325Z,82760.02
2023-05-05T16:57:03.275Z,82763.31
2023-05-05T16:59:31.406Z,82750.25
2023-05-05T17:01:57.592Z,82749.27
2023-05-05T17:04:23.524Z,82759.08
2023-05-05T17:06:50.201Z,82757.66
2023-05-05T17:09:15.985Z,82760.10
2023-05-05T17:11:41.918Z,82763.17
2023-05-05T17:14:07.660Z,82759.45
2023-05-05T17:16:33.924Z,82757.39
2023-05-05T17:18:59.998Z,82747.80
2023-05-05T17:21:26.219Z,82759.21
2023-05-05T17:23:52.035Z,82756.98
2023-05-05T17:26:17.952Z,82756.59
2023-05-05T17:28:43.821Z,82759.58
2023-05-05T17:31:09.604Z,82755.09
2023-05-05T17:33:35.451Z,82752.00
2023-05-05T17:36:01.271Z,82754.69
2023-05-05T17:38:27.613Z,82756.41
2023-05-05T17:40:53.513Z,82754.52
2023-05-05T17:43:19.358Z,82750.31
2023-05-05T17:45:46.092Z,82745.45
2023-05-05T17:48:11.995Z,82747.98
2023-05-05T17:50:37.887Z,82746.42
2023-05-05T17:53:04.338Z,82745.60
2023-05-05T17:55:30.256Z,82737.94
2023-05-05T17:57:56.770Z,82745.93
2023-05-05T18:00:22.669Z,82741.36
2023-05-05T18:02:48.718Z,82725.75
2023-05-05T18:05:14.651Z,82735.20
2023-05-05T18:07:40.680Z,82733.40
2023-05-05T18:10:07.734Z,82726.03
2023-05-05T18:12:33.669Z,82723.29
2023-05-05T18:15:00.982Z,82723.71
2023-05-05T18:17:26.827Z,82723.11
2023-05-05T18:19:52.622Z,82723.45
2023-05-05T18:22:18.446Z,82718.52
2023-05-05T18:24:45.811Z,82714.64
2023-05-05T18:27:11.675Z,82715.22
2023-05-05T18:29:37.691Z,82714.39
2023-05-05T18:32:05.549Z,82714.09
2023-05-05T18:34:32.170Z,82700.27
2023-05-05T18:36:58.135Z,82709.55
2023-05-05T18:39:24.016Z,82708.29
2023-05-05T18:41:49.924Z,82695.08
2023-05-05T18:44:15.761Z,82703.59
2023-05-05T18:46:42.693Z,82703.52
2023-05-05T18:49:08.759Z,82711.23
2023-05-05T18:51:34.637Z,82711.38
2023-05-05T18:54:00.682Z,82709.63
2023-05-05T18:56:26.993Z,82718.87
2023-05-05T18:58:53.087Z,82734.97
2023-05-05T19:01:19.741Z,82740.27
2023-05-05T19:03:47.643Z,82730.82
2023-05-05T19:06:13.700Z,82741.70
2023-05-05T19:08:39.727Z,82745.34
2023-05-05T19:11:05.598Z,82745.71
2023-05-05T19:13:31.519Z,82747.36
2023-05-05T19:15:57.364Z,82746.48
2023-05-05T19:18:23.769Z,82749.44
2023-05-05T19:20:49.670Z,82753.55
2023-05-05T19:23:15.484Z,82753.59
2023-05-05T19:25:42.140Z,82749.76
2023-05-05T19:28:09.206Z,82750.34
2023-05-05T19:30:35.423Z,82751.89
2023-05-05T19:33:01.469Z,82751.71
2023-05-05T19:35:29.105Z,82746.31
2023-05-05T19:37:55.269Z,82762.73
2023-05-05T19:40:21.144Z,82766.30
2023-05-05T19:42:47.119Z,82766.05
2023-05-05T19:45:12.962Z,82772.91
2023-05-05T19:47:38.812Z,82775.59
2023-05-05T19:50:05.181Z,82781.73
2023-05-05T19:52:31.172Z,82785.10
2023-05-05T19:54:57.924Z,82799.58
2023-05-05T19:57:23.841Z,82804.50
2023-05-05T19:59:49.667Z,82818.91
2023-05-05T20:02:16.402Z,82827.66
2023-05-05T20:04:43.255Z,82827.46
2023-05-05T20:07:09.133Z,82814.23
2023-05-05T20:09:37.065Z,82803.80
2023-05-05T20:12:03.443Z,82810.64
2023-05-05T20:14:29.193Z,82809.32
2023-05-05T20:16:55.105Z,82814.89
2023-05-05T20:19:21.025Z,82823.80
2023-05-05T20:21:46.860Z,82825.73
2023-05-05T20:24:12.727Z,82832.52
2023-05-05T20:26:38.474Z,82829.60
2023-05-05T20:29:04.255Z,82842.59
2023-05-05T20:31:30.473Z,82847.60
2023-05-05T20:33:56.458Z,82857.98
2023-05-05T20:36:25.591Z,82869.31
2023-05-05T20:38:52.015Z,82879.96
2023-05-05T20:41:18.007Z,82908.83
2023-05-05T20:43:43.796Z,82912.04
2023-05-05T20:46:12.831Z,82923.50
2023-05-05T20:48:42.470Z,82936.04
2023-05-05T20:51:09.072Z,82939.08
2023-05-05T20:53:35.032Z,82947.35
2023-05-05T20:56:00.909Z,82941.35
2023-05-05T20:58:26.781Z,82945.88
2023-05-05T21:00:52.712Z,82964.47
2023-05-05T21:03:18.852Z,82961.73
2023-05-05T21:05:44.731Z,82955.85
2023-05-05T21:08:10.661Z,82953.42
2023-05-05T21:10:36.480Z,82943.19
2023-05-05T21:13:02.287Z,82968.41
2023-05-05T21:15:28.402Z,82960.56
2023-05-05T21:17:55.019Z,82973.61
2023-05-05T21:20:20.931Z,82972.91
2023-05-05T21:22:46.778Z,82958.66
2023-05-05T21:25:17.877Z,82961.39
2023-05-05T21:27:43.752Z,82968.14
2023-05-05T21:30:11.155Z,82967.02
2023-05-05T21:32:38.448Z,82956.10
2023-05-05T21:35:05.652Z,82964.13
2023-05-05T21:37:31.538Z,82980.09
2023-05-05T21:39:57.384Z,82987.79
2023-05-05T21:42:23.362Z,82991.29
2023-05-05T21:44:49.155Z,82997.33
2023-05-05T21:47:15.771Z,83001.11
2023-05-05T21:49:41.649Z,82999.83
2023-05-05T21:52:07.661Z,83000.55
2023-05-05T21:54:33.590Z,82998.27
2023-05-05T21:57:00.002Z,82999.98
2023-05-05T21:59:25.962Z,82988.76
2023-05-05T22:01:51.856Z,82992.72
2023-05-05T22:04:17.815Z,82981.67
2023-05-05T22:06:43.621Z,82978.30
2023-05-05T22:09:09.570Z,82975.02
2023-05-05T22:11:35.369Z,82969.85
2023-05-05T22:14:01.265Z,82965.11
2023-05-05T22:16:27.128Z,82966.39
2023-05-05T22:18:52.927Z,82968.95
2023-05-05T22:21:20.576Z,82964.10
2023-05-05T22:23:46.689Z,82964.28
2023-05-05T22:26:12.519Z,82952.61
2023-05-05T22:28:38.280Z,82964.41
2023-05-05T22:31:04.111Z,82965.40
2023-05-05T22:33:30.067Z,82974.77
2023-05-05T22:35:56.225Z,82972.96
2023-05-05T22:38:22.105Z,82974.35
2023-05-05T22:40:48.651Z,82972.20
2023-05-05T22:43:14.558Z,82969.31
2023-05-05T22:45:40.592Z,82968.77
2023-05-05T22:48:06.555Z,82962.02
2023-05-05T22:50:32.548Z,82962.44
2023-05-05T22:52:58.374Z,82946.09
2023-05-05T22:55:24.195Z,82956.13
2023-05-05T22:57:51.862Z,82948.81
2023-05-05T23:00:17.886Z,82944.52
2023-05-05T23:02:43.758Z,82948.13
2023-05-05T23:05:09.889Z,82944.16
2023-05-05T23:07:36.134Z,82946.30
2023-05-05T23:10:03.104Z,82946.23
2023-05-05T23:12:29.189Z,82942.55
2023-05-05T23:14:55.343Z,82938.47
2023-05-05T23:17:21.224Z,82934.75
2023-05-05T23:19:47.642Z,82931.35
2023-05-05T23:22:13.585Z,82930.27
2023-05-05T23:24:39.556Z,82928.45
2023-05-05T23:27:05.318Z,82924.14
2023-05-05T23:29:31.273Z,82927.15
2023-05-05T23:31:57.420Z,82911.05
2023-05-05T23:34:23.564Z,82922.43
2023-05-05T23:36:49.450Z,82919.30
2023-05-05T23:39:15.946Z,82913.17
2023-05-05T23:41:41.819Z,82911.44
2023-05-05T23:44:07.710Z,82913.60
2023-05-05T23:46:33.629Z,82908.77
2023-05-05T23:48:59.415Z,82898.55
2023-05-05T23:51:26.640Z,82899.00
2023-05-05T23:53:52.748Z,82900.38
2023-05-05T23:56:19.246Z,82900.02
2023-05-05T23:58:45.313Z,82896.64
